createdAt,value
2018-09-17T00:00:07.501Z,17.02
2018-09-17T00:02:35.027Z,17.07
2018-09-17T00:05:02.546Z,17.08
2018-09-17T00:07:30.165Z,17.36
2018-09-17T00:09:57.892Z,17.34
2018-09-17T00:12:25.472Z,17.37
2018-09-17T00:14:53.133Z,17.11
2018-09-17T00:17:20.742Z,16.84
2018-09-17T00:19:48.386Z,16.86
2018-09-17T00:22:15.961Z,16.77
2018-09-17T00:24:43.569Z,16.64
2018-09-17T00:27:11.144Z,16.54
2018-09-17T00:29:38.710Z,16.61
2018-09-17T00:32:06.262Z,16.66
2018-09-17T00:34:33.817Z,16.61
2018-09-17T00:37:01.402Z,16.38
2018-09-17T00:39:28.986Z,16.41
2018-09-17T00:41:56.528Z,16.76
2018-09-17T00:44:24.199Z,16.57
2018-09-17T00:46:51.717Z,16.43
2018-09-17T00:49:19.264Z,16.47
2018-09-17T00:51:46.865Z,16.48
2018-09-17T00:54:14.606Z,16.27
2018-09-17T00:56:42.125Z,16.31
2018-09-17T00:59:09.692Z,16.31
2018-09-17T01:01:37.280Z,16.27
2018-09-17T01:04:04.861Z,16.26
2018-09-17T01:06:32.581Z,16.22
2018-09-17T01:09:00.329Z,16.47
2018-09-17T01:11:27.904Z,16.64
2018-09-17T01:13:55.507Z,16.65
2018-09-17T01:16:23.064Z,16.74
2018-09-17T01:18:50.597Z,16.94
2018-09-17T01:21:18.142Z,16.84
2018-09-17T01:23:45.698Z,16.85
2018-09-17T01:26:13.238Z,16.63
2018-09-17T01:28:41.693Z,16.57
2018-09-17T01:31:09.335Z,16.51
2018-09-17T01:33:36.861Z,16.59
2018-09-17T01:36:04.480Z,16.63
2018-09-17T01:38:32.663Z,16.72
2018-09-17T01:41:00.362Z,16.36
2018-09-17T01:43:27.926Z,16.43
2018-09-17T01:45:55.513Z,16.45
2018-09-17T01:48:23.055Z,16.42
2018-09-17T01:50:50.642Z,16.36
2018-09-17T01:53:18.188Z,16.20
2018-09-17T01:55:45.793Z,16.29
2018-09-17T01:58:14.646Z,16.37
2018-09-17T02:00:42.176Z,16.44
2018-09-17T02:03:09.962Z,16.58
2018-09-17T02:05:37.781Z,16.51
2018-09-17T02:08:05.409Z,16.46
2018-09-17T02:10:32.970Z,16.34
2018-09-17T02:13:00.493Z,16.44
2018-09-17T02:15:28.192Z,16.40
2018-09-17T02:17:55.745Z,16.41
2018-09-17T02:20:23.304Z,16.33
2018-09-17T02:22:50.880Z,16.33
2018-09-17T02:25:18.424Z,16.28
2018-09-17T02:27:46.084Z,16.26
2018-09-17T02:30:13.677Z,16.20
2018-09-17T02:32:41.693Z,16.13
2018-09-17T02:35:09.464Z,16.31
2018-09-17T02:37:37.089Z,16.39
2018-09-17T02:40:04.657Z,16.21
2018-09-17T02:42:32.304Z,16.29
2018-09-17T02:44:59.890Z,16.16
2018-09-17T02:47:27.741Z,15.83
2018-09-17T02:49:55.310Z,16.09
2018-09-17T02:52:22.860Z,15.87
2018-09-17T02:54:50.655Z,15.90
2018-09-17T02:57:18.357Z,16.00
2018-09-17T02:59:45.867Z,16.04
2018-09-17T03:02:13.607Z,16.08
2018-09-17T03:04:41.174Z,16.21
2018-09-17T03:07:08.825Z,16.12
2018-09-17T03:09:36.382Z,15.94
2018-09-17T03:12:03.962Z,16.03
2018-09-17T03:14:32.367Z,15.71
2018-09-17T03:17:04.770Z,15.68
2018-09-17T03:19:32.297Z,15.65
2018-09-17T03:21:59.879Z,15.59
2018-09-17T03:24:27.445Z,15.57
2018-09-17T03:26:55.017Z,15.71
2018-09-17T03:29:24.312Z,15.94
2018-09-17T03:31:51.916Z,16.04
2018-09-17T03:34:19.449Z,15.90
2018-09-17T03:36:46.981Z,15.86
2018-09-17T03:39:14.571Z,15.83
2018-09-17T03:41:42.144Z,15.97
2018-09-17T03:44:09.777Z,15.97
2018-09-17T03:46:37.363Z,15.89
2018-09-17T03:49:04.863Z,15.94
2018-09-17T03:51:32.370Z,15.91
2018-09-17T03:53:59.946Z,16.05
2018-09-17T03:56:27.488Z,15.96
2018-09-17T03:58:55.070Z,15.65
2018-09-17T04:01:22.651Z,15.65
2018-09-17T04:03:50.159Z,15.71
2018-09-17T04:06:17.735Z,15.79
2018-09-17T04:08:45.291Z,15.74
2018-09-17T04:11:12.865Z,15.87
2018-09-17T04:13:40.378Z,15.65
2018-09-17T04:16:07.947Z,15.76
2018-09-17T04:18:35.467Z,15.66
2018-09-17T04:21:03.027Z,15.75
2018-09-17T04:23:30.554Z,15.76
2018-09-17T04:25:58.346Z,15.62
2018-09-17T04:28:25.883Z,15.66
2018-09-17T04:30:53.435Z,15.78
2018-09-17T04:33:21.005Z,15.64
2018-09-17T04:35:48.557Z,15.56
2018-09-17T04:38:16.181Z,15.80
2018-09-17T04:40:43.895Z,15.87
2018-09-17T04:43:11.403Z,15.75
2018-09-17T04:45:39.422Z,15.83
2018-09-17T04:48:06.929Z,15.85
2018-09-17T04:50:34.490Z,15.89
2018-09-17T04:53:02.075Z,15.85
2018-09-17T04:55:29.635Z,15.80
2018-09-17T04:57:57.355Z,15.97
2018-09-17T05:00:24.902Z,15.80
2018-09-17T05:02:52.492Z,15.61
2018-09-17T05:05:20.059Z,15.71
2018-09-17T05:07:47.773Z,15.48
2018-09-17T05:10:15.360Z,15.47
2018-09-17T05:12:42.929Z,15.52
2018-09-17T05:15:10.485Z,15.68
2018-09-17T05:17:38.011Z,15.65
2018-09-17T05:20:05.558Z,15.79
2018-09-17T05:22:33.132Z,15.77
2018-09-17T05:25:00.705Z,15.71
2018-09-17T05:27:28.267Z,15.94
2018-09-17T05:29:55.790Z,15.94
2018-09-17T05:32:23.336Z,16.04
2018-09-17T05:34:50.892Z,15.97
2018-09-17T05:37:18.599Z,16.02
2018-09-17T05:39:46.129Z,15.95
2018-09-17T05:42:13.705Z,16.00
2018-09-17T05:44:41.269Z,15.99
2018-09-17T05:47:08.798Z,16.15
2018-09-17T05:49:36.358Z,16.18
2018-09-17T05:52:03.913Z,16.33
2018-09-17T05:54:32.344Z,16.32
2018-09-17T05:56:59.894Z,16.37
2018-09-17T05:59:27.534Z,16.24
2018-09-17T06:01:55.147Z,16.31
2018-09-17T06:04:22.673Z,16.31
2018-09-17T06:06:50.232Z,16.50
2018-09-17T06:09:17.771Z,16.35
2018-09-17T06:11:45.298Z,16.25
2018-09-17T06:14:12.895Z,16.36
2018-09-17T06:16:40.477Z,16.33
2018-09-17T06:19:08.016Z,16.21
2018-09-17T06:21:35.594Z,16.24
2018-09-17T06:24:03.333Z,16.46
2018-09-17T06:26:30.913Z,16.53
2018-09-17T06:28:58.431Z,16.56
2018-09-17T06:31:26.088Z,16.58
2018-09-17T06:33:53.622Z,16.62
2018-09-17T06:36:21.193Z,16.49
2018-09-17T06:38:48.740Z,16.59
2018-09-17T06:41:16.366Z,16.43
2018-09-17T06:43:43.964Z,16.51
2018-09-17T06:46:11.500Z,16.71
2018-09-17T06:48:39.069Z,16.63
2018-09-17T06:51:06.594Z,16.63
2018-09-17T06:53:34.520Z,16.75
2018-09-17T06:56:02.130Z,16.83
2018-09-17T06:58:29.714Z,16.85
2018-09-17T07:00:57.495Z,16.90
2018-09-17T07:03:25.159Z,16.94
2018-09-17T07:05:52.685Z,16.96
2018-09-17T07:08:20.365Z,17.09
2018-09-17T07:10:48.156Z,17.28
2018-09-17T07:13:15.682Z,17.34
2018-09-17T07:15:43.255Z,17.31
2018-09-17T07:18:10.810Z,17.43
2018-09-17T07:20:38.369Z,17.33
2018-09-17T07:23:05.963Z,17.49
2018-09-17T07:25:33.533Z,17.52
2018-09-17T07:28:01.250Z,17.49
2018-09-17T07:30:28.942Z,17.60
2018-09-17T07:32:56.610Z,17.75
2018-09-17T07:35:24.447Z,17.67
2018-09-17T07:37:52.053Z,17.83
2018-09-17T07:40:19.775Z,17.88
2018-09-17T07:42:47.622Z,17.88
2018-09-17T07:45:15.413Z,18.09
2018-09-17T07:47:43.751Z,18.10
2018-09-17T07:50:11.623Z,18.25
2018-09-17T07:52:39.432Z,18.35
2018-09-17T07:55:07.121Z,18.41
2018-09-17T07:57:34.894Z,18.44
2018-09-17T08:00:02.528Z,18.54
2018-09-17T08:02:30.311Z,18.64
2018-09-17T08:04:58.024Z,18.60
2018-09-17T08:07:25.947Z,18.75
2018-09-17T08:09:53.841Z,18.86
2018-09-17T08:12:21.575Z,18.97
2018-09-17T08:14:49.317Z,19.00
2018-09-17T08:17:17.179Z,19.08
2018-09-17T08:19:45.527Z,19.21
2018-09-17T08:22:13.108Z,19.29
2018-09-17T08:24:40.777Z,19.37
2018-09-17T08:27:09.237Z,19.45
2018-09-17T08:29:37.166Z,19.59
2018-09-17T08:32:04.757Z,19.59
2018-09-17T08:34:32.663Z,19.71
2018-09-17T08:37:00.300Z,19.75
2018-09-17T08:39:28.242Z,19.85
2018-09-17T08:41:55.921Z,19.88
2018-09-17T08:44:23.668Z,19.95
2018-09-17T08:46:51.491Z,19.93
2018-09-17T08:49:19.119Z,20.02
2018-09-17T08:51:46.901Z,20.03
2018-09-17T08:54:14.687Z,20.12
2018-09-17T08:56:42.415Z,20.21
2018-09-17T08:59:10.424Z,20.23
2018-09-17T09:01:38.225Z,20.30
2018-09-17T09:04:06.580Z,20.32
2018-09-17T09:06:34.359Z,20.30
2018-09-17T09:09:02.440Z,20.30
2018-09-17T09:11:30.024Z,20.47
2018-09-17T09:13:57.743Z,20.50
2018-09-17T09:16:25.365Z,20.55
2018-09-17T09:18:53.135Z,20.51
2018-09-17T09:21:21.398Z,20.57
2018-09-17T09:23:49.367Z,20.66
2018-09-17T09:26:16.984Z,20.70
2018-09-17T09:28:44.865Z,20.79
2018-09-17T09:31:12.570Z,20.95
2018-09-17T09:33:40.273Z,21.01
2018-09-17T09:36:07.887Z,21.05
2018-09-17T09:38:35.618Z,21.19
2018-09-17T09:41:03.206Z,21.19
2018-09-17T09:43:31.099Z,21.28
2018-09-17T09:45:58.781Z,21.25
2018-09-17T09:48:26.658Z,21.24
2018-09-17T09:50:54.301Z,21.25
2018-09-17T09:53:22.092Z,21.41
2018-09-17T09:55:49.861Z,21.42
2018-09-17T09:58:17.496Z,21.42
2018-09-17T10:00:45.173Z,21.47
2018-09-17T10:03:12.901Z,21.44
2018-09-17T10:05:40.599Z,21.45
2018-09-17T10:08:08.226Z,21.56
2018-09-17T10:10:50.973Z,21.63
2018-09-17T10:13:24.134Z,21.77
2018-09-17T10:15:51.714Z,21.79
2018-09-17T10:18:34.970Z,21.79
2018-09-17T10:21:02.670Z,21.94
2018-09-17T10:23:30.321Z,21.95
2018-09-17T10:25:58.303Z,22.03
2018-09-17T10:28:25.889Z,22.12
2018-09-17T10:30:53.663Z,22.20
2018-09-17T10:33:21.372Z,22.25
2018-09-17T10:35:49.457Z,22.24
2018-09-17T10:38:17.114Z,22.29
2018-09-17T10:40:44.818Z,22.29
2018-09-17T10:43:12.367Z,22.35
2018-09-17T10:45:40.142Z,22.45
2018-09-17T10:48:07.979Z,22.47
2018-09-17T10:50:35.576Z,22.39
2018-09-17T10:53:03.398Z,22.46
2018-09-17T10:55:34.485Z,22.44
2018-09-17T10:58:02.365Z,22.55
2018-09-17T11:00:30.095Z,22.62
2018-09-17T11:02:58.033Z,22.68
2018-09-17T11:05:25.642Z,22.77
2018-09-17T11:07:53.545Z,22.84
2018-09-17T11:10:21.104Z,22.92
2018-09-17T11:12:48.884Z,22.89
2018-09-17T11:15:16.639Z,22.94
2018-09-17T11:17:44.369Z,22.90
2018-09-17T11:20:12.584Z,23.02
2018-09-17T11:22:40.697Z,23.18
2018-09-17T11:25:08.704Z,23.29
2018-09-17T11:27:36.624Z,23.29
2018-09-17T11:30:04.448Z,23.32
2018-09-17T11:32:32.559Z,23.38
2018-09-17T11:35:00.216Z,23.42
2018-09-17T11:37:27.872Z,23.41
2018-09-17T11:39:55.656Z,23.35
2018-09-17T11:42:23.398Z,23.61
2018-09-17T11:44:51.183Z,23.63
2018-09-17T11:47:18.851Z,23.64
2018-09-17T11:49:46.682Z,23.60
2018-09-17T11:52:14.434Z,23.66
2018-09-17T11:54:42.276Z,23.78
2018-09-17T11:57:09.962Z,23.77
2018-09-17T11:59:37.670Z,23.73
2018-09-17T12:02:05.535Z,23.96
2018-09-17T12:04:34.895Z,24.09
2018-09-17T12:07:02.569Z,24.10
2018-09-17T12:09:30.406Z,24.06
2018-09-17T12:11:58.210Z,24.22
2018-09-17T12:14:27.300Z,24.24
2018-09-17T12:16:55.289Z,24.37
2018-09-17T12:19:23.019Z,24.32
2018-09-17T12:21:50.778Z,24.43
2018-09-17T12:24:18.516Z,24.47
2018-09-17T12:26:46.477Z,24.35
2018-09-17T12:29:14.686Z,24.28
2018-09-17T12:31:42.395Z,24.47
2018-09-17T12:34:10.155Z,24.60
2018-09-17T12:36:37.827Z,24.49
2018-09-17T12:39:05.785Z,24.58
2018-09-17T12:41:33.422Z,24.66
2018-09-17T12:44:01.310Z,24.60
2018-09-17T12:46:29.032Z,24.67
2018-09-17T12:48:56.635Z,24.78
2018-09-17T12:51:24.301Z,24.79
2018-09-17T12:53:51.910Z,24.86
2018-09-17T12:56:19.785Z,24.83
2018-09-17T12:58:50.002Z,24.83
2018-09-17T13:01:18.813Z,24.91
2018-09-17T13:03:46.535Z,24.82
2018-09-17T13:06:14.173Z,25.00
2018-09-17T13:08:42.030Z,25.02
2018-09-17T13:11:09.700Z,25.18
2018-09-17T13:13:37.525Z,25.19
2018-09-17T13:16:05.238Z,25.12
2018-09-17T13:18:32.948Z,24.92
2018-09-17T13:21:00.840Z,25.05
2018-09-17T13:23:28.654Z,25.13
2018-09-17T13:25:56.279Z,25.14
2018-09-17T13:28:25.139Z,25.13
2018-09-17T13:30:52.867Z,25.07
2018-09-17T13:33:20.705Z,25.13
2018-09-17T13:35:48.611Z,25.17
2018-09-17T13:38:16.372Z,25.28
2018-09-17T13:40:44.932Z,25.30
2018-09-17T13:43:12.586Z,25.37
2018-09-17T13:45:40.284Z,25.46
2018-09-17T13:48:07.935Z,25.51
2018-09-17T13:50:35.882Z,25.46
2018-09-17T13:53:03.541Z,25.52
2018-09-17T13:55:31.397Z,25.42
2018-09-17T13:57:59.181Z,25.58
2018-09-17T14:00:27.617Z,25.65
2018-09-17T14:02:55.278Z,25.58
2018-09-17T14:05:23.032Z,25.65
2018-09-17T14:07:50.697Z,25.51
2018-09-17T14:10:18.492Z,25.51
2018-09-17T14:12:46.248Z,25.61
2018-09-17T14:15:13.868Z,25.66
2018-09-17T14:17:41.589Z,25.66
2018-09-17T14:20:15.482Z,25.78
2018-09-17T14:22:44.033Z,25.82
2018-09-17T14:25:11.672Z,25.73
2018-09-17T14:27:39.531Z,25.75
2018-09-17T14:30:07.204Z,25.80
2018-09-17T14:32:49.957Z,25.93
2018-09-17T14:35:17.510Z,25.98
2018-09-17T14:37:45.121Z,26.01
2018-09-17T14:40:12.875Z,26.05
2018-09-17T14:42:40.467Z,25.97
2018-09-17T14:45:08.020Z,26.10
2018-09-17T14:47:35.671Z,26.11
2018-09-17T14:50:03.313Z,26.15
2018-09-17T14:52:30.927Z,26.18
2018-09-17T14:54:58.460Z,26.18
2018-09-17T14:57:26.021Z,26.13
2018-09-17T14:59:53.615Z,26.08
2018-09-17T15:02:21.167Z,26.08
2018-09-17T15:04:48.694Z,26.19
2018-09-17T15:07:16.300Z,26.25
2018-09-17T15:09:43.885Z,26.27
2018-09-17T15:12:11.396Z,26.09
2018-09-17T15:14:39.168Z,26.07
2018-09-17T15:17:06.792Z,26.22
2018-09-17T15:19:34.652Z,26.41
2018-09-17T15:22:02.221Z,26.54
2018-09-17T15:24:29.946Z,26.61
2018-09-17T15:26:57.594Z,26.63
2018-09-17T15:29:25.238Z,26.57
2018-09-17T15:31:52.867Z,26.64
2018-09-17T15:34:20.640Z,26.67
2018-09-17T15:36:48.227Z,26.63
2018-09-17T15:39:15.900Z,26.48
2018-09-17T15:41:43.887Z,26.70
2018-09-17T15:44:11.750Z,26.88
2018-09-17T15:46:39.461Z,26.92
2018-09-17T15:49:07.099Z,26.88
2018-09-17T15:51:34.747Z,26.94
2018-09-17T15:54:02.559Z,26.96
2018-09-17T15:56:30.129Z,27.01
2018-09-17T15:58:57.750Z,26.95
2018-09-17T16:01:25.560Z,27.03
2018-09-17T16:03:53.265Z,26.79
2018-09-17T16:06:20.815Z,26.85
2018-09-17T16:08:48.414Z,26.81
2018-09-17T16:11:16.068Z,26.74
2018-09-17T16:13:43.834Z,26.68
2018-09-17T16:16:11.452Z,26.48
2018-09-17T16:18:39.873Z,26.67
2018-09-17T16:21:07.469Z,26.62
2018-09-17T16:23:35.095Z,26.66
2018-09-17T16:26:02.810Z,26.64
2018-09-17T16:28:30.511Z,26.53
2018-09-17T16:30:58.145Z,26.51
2018-09-17T16:33:25.866Z,26.19
2018-09-17T16:35:53.551Z,26.27
2018-09-17T16:38:21.238Z,26.20
2018-09-17T16:40:48.958Z,26.01
2018-09-17T16:43:16.635Z,26.11
2018-09-17T16:45:44.471Z,26.05
2018-09-17T16:48:12.176Z,25.53
2018-09-17T16:50:40.268Z,25.79
2018-09-17T16:53:07.978Z,25.68
2018-09-17T16:55:35.665Z,25.68
2018-09-17T16:58:03.367Z,25.67
2018-09-17T17:00:30.985Z,25.38
2018-09-17T17:02:58.710Z,25.31
2018-09-17T17:05:26.600Z,25.25
2018-09-17T17:07:54.300Z,24.97
2018-09-17T17:10:21.906Z,25.06
2018-09-17T17:12:49.695Z,24.95
2018-09-17T17:15:17.300Z,24.84
2018-09-17T17:17:44.929Z,24.68
2018-09-17T17:20:12.661Z,24.62
2018-09-17T17:22:40.348Z,24.60
2018-09-17T17:25:07.979Z,24.46
2018-09-17T17:27:36.026Z,24.42
2018-09-17T17:30:04.229Z,24.37
2018-09-17T17:32:31.892Z,24.61
2018-09-17T17:34:59.569Z,24.53
2018-09-17T17:37:27.276Z,24.51
2018-09-17T17:39:55.033Z,24.49
2018-09-17T17:42:22.667Z,24.28
2018-09-17T17:44:50.273Z,24.26
2018-09-17T17:47:17.797Z,24.17
2018-09-17T17:49:45.385Z,23.98
2018-09-17T17:52:13.005Z,23.96
2018-09-17T17:54:40.599Z,23.89
2018-09-17T17:57:08.137Z,23.98
2018-09-17T17:59:35.731Z,24.13
2018-09-17T18:02:03.271Z,24.13
2018-09-17T18:04:30.834Z,23.95
2018-09-17T18:06:58.458Z,23.81
2018-09-17T18:09:26.137Z,23.96
2018-09-17T18:11:53.574Z,23.89
2018-09-17T18:14:21.243Z,23.65
2018-09-17T18:16:48.761Z,23.48
2018-09-17T18:19:16.302Z,23.59
2018-09-17T18:21:43.970Z,23.46
2018-09-17T18:24:11.465Z,23.51
2018-09-17T18:26:39.088Z,23.46
2018-09-17T18:29:06.620Z,23.45
2018-09-17T18:31:34.187Z,23.23
2018-09-17T18:34:01.737Z,23.21
2018-09-17T18:36:29.391Z,23.25
2018-09-17T18:38:57.031Z,23.11
2018-09-17T18:41:24.540Z,22.70
2018-09-17T18:43:52.192Z,22.71
2018-09-17T18:46:19.771Z,22.67
2018-09-17T18:48:47.327Z,22.77
2018-09-17T18:51:14.951Z,22.53
2018-09-17T18:53:42.434Z,22.58
2018-09-17T18:56:10.218Z,22.55
2018-09-17T18:58:37.761Z,22.53
2018-09-17T19:01:05.348Z,22.53
2018-09-17T19:03:32.939Z,22.42
2018-09-17T19:06:00.635Z,22.46
2018-09-17T19:08:28.083Z,22.41
2018-09-17T19:10:55.653Z,22.46
2018-09-17T19:13:23.222Z,22.33
2018-09-17T19:15:50.922Z,22.26
2018-09-17T19:18:18.454Z,22.24
2018-09-17T19:20:46.256Z,22.37
2018-09-17T19:23:19.173Z,22.33
2018-09-17T19:25:46.882Z,22.20
2018-09-17T19:28:14.555Z,22.34
2018-09-17T19:30:42.057Z,22.32
2018-09-17T19:33:09.615Z,22.36
2018-09-17T19:35:37.131Z,22.45
2018-09-17T19:38:04.715Z,22.33
2018-09-17T19:40:32.700Z,22.33
2018-09-17T19:43:00.454Z,22.25
2018-09-17T19:45:27.982Z,22.25
2018-09-17T19:47:55.616Z,22.42
2018-09-17T19:50:23.181Z,22.46
2018-09-17T19:52:50.689Z,22.49
2018-09-17T19:55:18.257Z,22.45
2018-09-17T19:57:45.845Z,22.50
2018-09-17T20:00:13.438Z,22.45
2018-09-17T20:02:41.031Z,22.47
2018-09-17T20:05:24.317Z,22.20
2018-09-17T20:07:51.955Z,22.11
2018-09-17T20:10:19.602Z,22.17
2018-09-17T20:12:47.133Z,22.02
2018-09-17T20:15:14.692Z,22.02
2018-09-17T20:17:42.377Z,21.96
2018-09-17T20:20:09.963Z,21.61
2018-09-17T20:22:37.489Z,21.50
2018-09-17T20:25:05.051Z,21.51
2018-09-17T20:27:32.591Z,21.45
2018-09-17T20:30:00.921Z,21.54
2018-09-17T20:32:28.653Z,21.40
2018-09-17T20:34:57.069Z,21.30
2018-09-17T20:37:24.590Z,21.24
2018-09-17T20:39:52.261Z,21.17
2018-09-17T20:42:19.811Z,21.10
2018-09-17T20:44:47.351Z,20.77
2018-09-17T20:47:14.933Z,20.96
2018-09-17T20:49:42.527Z,20.77
2018-09-17T20:52:10.213Z,20.77
2018-09-17T20:54:37.802Z,20.97
2018-09-17T20:57:05.464Z,20.94
2018-09-17T20:59:32.975Z,21.06
2018-09-17T21:02:00.668Z,20.79
2018-09-17T21:04:28.219Z,20.53
2018-09-17T21:06:55.827Z,20.94
2018-09-17T21:09:24.326Z,20.84
2018-09-17T21:11:51.896Z,20.76
2018-09-17T21:14:19.461Z,20.64
2018-09-17T21:16:47.267Z,20.63
2018-09-17T21:19:14.846Z,20.42
2018-09-17T21:21:42.348Z,20.47
2018-09-17T21:24:09.931Z,20.57
2018-09-17T21:26:37.445Z,20.50
2018-09-17T21:29:05.166Z,20.33
2018-09-17T21:31:32.723Z,20.65
2018-09-17T21:34:00.413Z,20.58
2018-09-17T21:36:28.139Z,20.61
2018-09-17T21:38:55.706Z,20.27
2018-09-17T21:41:23.252Z,20.49
2018-09-17T21:43:54.131Z,20.48
2018-09-17T21:46:21.725Z,20.35
2018-09-17T21:48:49.335Z,20.31
2018-09-17T21:51:16.904Z,20.31
2018-09-17T21:53:44.486Z,20.30
2018-09-17T21:59:06.242Z,20.37
2018-09-17T22:01:33.843Z,20.40
2018-09-17T22:04:01.400Z,20.44
2018-09-17T22:06:28.950Z,20.40
2018-09-17T22:08:56.565Z,20.37
2018-09-17T22:11:24.329Z,20.47
2018-09-17T22:13:52.071Z,20.45
2018-09-17T22:16:19.544Z,20.63
2018-09-17T22:18:47.246Z,20.67
2018-09-17T22:21:14.974Z,20.71
2018-09-17T22:23:43.201Z,20.70
2018-09-17T22:26:10.915Z,20.61
2018-09-17T22:28:38.751Z,20.56
2018-09-17T22:31:06.314Z,20.55
2018-09-17T22:33:33.836Z,20.57
2018-09-17T22:36:01.419Z,20.57
2018-09-17T22:38:28.943Z,20.35
2018-09-17T22:40:56.519Z,20.45
2018-09-17T22:43:24.270Z,20.31
2018-09-17T22:45:51.912Z,20.35
2018-09-17T22:48:19.428Z,20.43
2018-09-17T22:50:46.975Z,20.40
2018-09-17T22:53:16.143Z,20.53
2018-09-17T22:55:43.660Z,20.41
2018-09-17T22:58:11.194Z,20.48
2018-09-17T23:00:38.873Z,20.02
2018-09-17T23:03:06.550Z,20.38
2018-09-17T23:05:34.265Z,20.42
2018-09-17T23:08:01.929Z,20.18
2018-09-17T23:10:29.734Z,20.02
2018-09-17T23:12:57.440Z,20.18
2018-09-17T23:15:25.136Z,20.12
2018-09-17T23:17:52.738Z,20.00
2018-09-17T23:20:20.361Z,20.00
2018-09-17T23:22:48.891Z,20.06
2018-09-17T23:25:16.592Z,19.88
2018-09-17T23:27:44.397Z,20.04
2018-09-17T23:30:12.114Z,20.08
2018-09-17T23:32:39.796Z,19.96
2018-09-17T23:35:07.462Z,19.86
2018-09-17T23:37:35.097Z,20.10
2018-09-17T23:40:02.683Z,20.15
2018-09-17T23:42:30.304Z,20.19
2018-09-17T23:45:00.757Z,20.29
2018-09-17T23:47:28.323Z,20.00
2018-09-17T23:49:56.134Z,20.20
2018-09-17T23:52:23.652Z,20.34
2018-09-17T23:54:51.218Z,20.45
2018-09-17T23:57:18.767Z,20.40
2018-09-17T23:59:46.289Z,20.37
